Time;durP1;ratioP1;P1;durP2;ratioP2;P2;SDS_P1;SDS_P2;PMS_P1;PMS_P2;Temp;Humidity;BMP_temperature;BMP_pressure;BME280_temperature;BME280_humidity;BME280_pressure;Samples;Min_cycle;Max_cycle;Signal;HPM_P1;HPM_P2
2020/12/25 00:02:02;;;;;;;;;;;;;;;2.99;91.71;98834.63;4879370;29;19928;-72
2020/12/25 00:04:29;;;;;;;;;;;;;;;2.94;91.38;98836.22;4880135;29;19963;-71
2020/12/25 00:06:57;;;;;;;;;;;;;;;2.90;91.70;98835.34;4879349;29;19966;-71
2020/12/25 00:09:25;;;;;;;;;;;;;;;3.02;91.79;98835.56;4882523;29;19979;-71
2020/12/25 00:11:52;;;;;;;;;;;;;;;3.10;91.97;98839.00;4893660;29;19927;-71
2020/12/25 00:14:19;;;;;;;;;;;;;;;3.18;91.29;98851.75;4890497;29;19928;-71
2020/12/25 00:16:48;;;;;;;;;;;;;;;3.08;91.29;98844.84;4890628;29;19934;-71
2020/12/25 00:19:16;;;;;;;;;;;;;;;3.17;91.37;98840.81;4897136;29;19976;-71
2020/12/25 00:21:44;;;;;;;;;;;;;;;3.18;91.52;98842.50;4887917;29;20022;-71
2020/12/25 00:24:11;;;;;;;;;;;;;;;3.28;91.51;98829.22;4900403;29;20298;-71
2020/12/25 00:26:39;;;;;;;;;;;;;;;3.41;92.02;98832.72;4887950;29;19927;-71
2020/12/25 00:29:06;;;;;;;;;;;;;;;3.36;92.16;98836.84;4895318;29;19991;-71
2020/12/25 00:31:34;;;;;;;;;;;;;;;3.21;91.69;98846.75;4883040;29;19934;-71
2020/12/25 00:34:03;;;;;;;;;;;;;;;3.13;91.35;98853.34;4882760;29;19935;-71
2020/12/25 00:36:30;;;;;;;;;;;;;;;3.05;90.99;98854.88;4882894;29;19927;-71
2020/12/25 00:38:58;;;;;;;;;;;;;;;2.99;91.87;98857.31;4882357;29;19935;-71
2020/12/25 00:41:27;;;;;;;;;;;;;;;2.90;91.26;98864.75;4892427;29;20369;-71
2020/12/25 00:43:55;;;;;;;;;;;;;;;2.88;91.38;98859.66;4883660;29;20386;-71
2020/12/25 00:46:23;;;;;;;;;;;;;;;2.89;91.39;98868.06;4883446;29;19927;-71
2020/12/25 00:48:51;;;;;;;;;;;;;;;2.93;91.17;98850.50;4882755;29;19992;-71
2020/12/25 00:51:22;;;;;;;;;;;;;;;2.93;91.43;98854.72;4881631;29;19935;-71
2020/12/25 00:53:51;;;;;;;;;;;;;;;2.92;91.43;98858.91;4885151;29;19928;-71
2020/12/25 00:56:26;;;;;;;;;;;;;;;2.90;91.12;98859.69;4895187;29;19931;-71
2020/12/25 00:58:54;;;;;;;;;;;;;;;2.92;91.67;98856.38;4895660;29;20030;-71
2020/12/25 01:01:27;;;;;;;;;;;;;;;2.94;90.98;98861.44;4900835;29;19935;-72
2020/12/25 01:04:11;;;;;;;;;;;;;;;2.90;91.03;98859.69;4882758;29;20020;-74
2020/12/25 01:06:40;;;;;;;;;;;;;;;2.73;91.54;98857.72;4895268;29;19983;-71
2020/12/25 01:09:07;;;;;;;;;;;;;;;2.59;90.81;98866.72;4882398;29;19928;-71
2020/12/25 01:11:39;;;;;;;;;;;;;;;2.69;91.70;98871.09;4888613;29;19928;-71
2020/12/25 01:14:06;;;;;;;;;;;;;;;2.75;90.95;98874.56;4889681;29;20024;-71
2020/12/25 01:16:34;;;;;;;;;;;;;;;2.77;91.45;98872.91;4886982;29;19959;-71
2020/12/25 01:19:01;;;;;;;;;;;;;;;2.56;91.34;98875.91;4885445;29;20014;-71
2020/12/25 01:21:29;;;;;;;;;;;;;;;2.40;91.03;98876.47;4897927;29;19927;-70
2020/12/25 01:23:57;;;;;;;;;;;;;;;2.40;91.65;98876.47;4896115;29;20483;-70
2020/12/25 01:26:24;;;;;;;;;;;;;;;2.40;91.57;98881.50;4883226;29;19975;-70
2020/12/25 01:28:54;;;;;;;;;;;;;;;2.30;91.36;98869.56;4881749;29;19928;-70
2020/12/25 01:31:22;;;;;;;;;;;;;;;2.32;90.87;98872.94;4881450;29;19927;-71
2020/12/25 01:33:49;;;;;;;;;;;;;;;2.36;90.79;98860.44;4881929;29;19939;-71
2020/12/25 01:36:18;;;;;;;;;;;;;;;2.21;91.44;98865.19;4883262;29;19976;-71
2020/12/25 01:38:45;;;;;;;;;;;;;;;2.26;90.90;98871.16;4894148;29;19931;-71
2020/12/25 01:41:14;;;;;;;;;;;;;;;2.28;90.95;98856.91;4898459;29;19927;-71
2020/12/25 01:43:42;;;;;;;;;;;;;;;2.52;91.47;98861.56;4900321;29;19931;-71
2020/12/25 01:46:09;;;;;;;;;;;;;;;2.64;91.57;98872.69;4887933;29;19927;-71
2020/12/25 01:48:37;;;;;;;;;;;;;;;2.50;90.93;98868.22;4881632;29;19977;-71
2020/12/25 01:51:04;;;;;;;;;;;;;;;2.48;91.61;98870.72;4883833;29;19935;-71
2020/12/25 01:53:31;;;;;;;;;;;;;;;2.46;90.61;98864.81;4882840;29;20444;-70
2020/12/25 01:55:59;;;;;;;;;;;;;;;2.32;91.05;98868.75;4882552;29;19935;-71
2020/12/25 01:58:27;;;;;;;;;;;;;;;2.31;90.66;98867.06;4893766;29;20377;-70
2020/12/25 02:00:55;;;;;;;;;;;;;;;2.35;91.21;98868.78;4881748;29;19991;-70
2020/12/25 02:03:22;;;;;;;;;;;;;;;2.25;90.50;98876.16;4881396;29;19934;-70
2020/12/25 02:05:50;;;;;;;;;;;;;;;2.29;90.82;98861.16;4889776;29;20018;-70
2020/12/25 02:08:17;;;;;;;;;;;;;;;2.24;90.58;98864.38;4899836;29;20302;-70
2020/12/25 02:10:46;;;;;;;;;;;;;;;2.24;91.18;98856.84;4891706;29;20379;-70
2020/12/25 02:13:14;;;;;;;;;;;;;;;2.14;91.26;98860.84;4883615;29;20402;-70
2020/12/25 02:15:43;;;;;;;;;;;;;;;2.16;91.05;98869.28;4883032;29;19935;-71
2020/12/25 02:18:10;;;;;;;;;;;;;;;2.01;91.30;98867.34;4881395;29;19982;-70
2020/12/25 02:20:37;;;;;;;;;;;;;;;1.91;91.07;98862.06;4881010;29;19927;-70
2020/12/25 02:23:06;;;;;;;;;;;;;;;1.87;91.06;98870.38;4880934;29;19927;-72
2020/12/25 02:25:37;;;;;;;;;;;;;;;1.95;91.27;98866.34;4883345;29;19975;-70
2020/12/25 02:28:04;;;;;;;;;;;;;;;1.91;91.21;98865.44;4891004;29;19928;-70
2020/12/25 02:30:31;;;;;;;;;;;;;;;2.01;91.23;98874.88;4888693;29;19928;-70
2020/12/25 02:32:59;;;;;;;;;;;;;;;1.92;91.00;98881.41;4880853;29;19927;-70
2020/12/25 02:35:27;;;;;;;;;;;;;;;1.87;90.44;98893.03;4886060;29;19967;-70
2020/12/25 02:37:54;;;;;;;;;;;;;;;1.94;90.89;98894.84;4882884;29;20513;-71
2020/12/25 02:40:23;;;;;;;;;;;;;;;2.21;90.55;98895.38;4885620;29;19952;-71
2020/12/25 02:42:51;;;;;;;;;;;;;;;2.31;90.63;98899.78;4888893;29;20301;-71
2020/12/25 02:45:19;;;;;;;;;;;;;;;2.36;90.77;98895.69;4886903;29;20338;-70
2020/12/25 02:47:46;;;;;;;;;;;;;;;2.41;91.33;98894.09;4880934;29;19928;-71
2020/12/25 02:50:14;;;;;;;;;;;;;;;2.39;90.99;98898.25;4880963;29;20394;-70
2020/12/25 02:52:41;;;;;;;;;;;;;;;2.17;90.54;98898.66;4889028;29;19928;-71
2020/12/25 02:55:09;;;;;;;;;;;;;;;2.23;91.48;98903.81;4885104;29;19927;-71
2020/12/25 02:57:37;;;;;;;;;;;;;;;2.24;91.32;98903.00;4883998;29;19928;-70
2020/12/25 03:00:05;;;;;;;;;;;;;;;2.20;90.97;98901.25;4890617;29;19927;-70
2020/12/25 03:02:32;;;;;;;;;;;;;;;2.24;91.23;98902.16;4892162;29;20026;-72
2020/12/25 03:05:00;;;;;;;;;;;;;;;2.07;91.04;98896.78;4883421;29;20370;-70
2020/12/25 03:07:27;;;;;;;;;;;;;;;2.03;91.29;98890.00;4889280;29;19927;-70
2020/12/25 03:09:55;;;;;;;;;;;;;;;2.03;91.18;98895.03;4884543;29;19932;-70
2020/12/25 03:12:22;;;;;;;;;;;;;;;2.15;91.10;98905.34;4880198;29;19928;-70
2020/12/25 03:14:51;;;;;;;;;;;;;;;2.19;91.50;98909.59;4879568;29;19932;-71
2020/12/25 03:17:19;;;;;;;;;;;;;;;2.25;90.59;98912.25;4888142;29;19928;-70
2020/12/25 03:19:46;;;;;;;;;;;;;;;2.28;91.28;98917.31;4887124;29;19938;-70
2020/12/25 03:22:14;;;;;;;;;;;;;;;2.33;90.98;98905.69;4896742;29;19950;-70
2020/12/25 03:24:41;;;;;;;;;;;;;;;2.42;91.42;98905.03;4884874;29;19934;-70
2020/12/25 03:27:08;;;;;;;;;;;;;;;2.39;90.64;98904.97;4879778;29;19935;-70
2020/12/25 03:29:36;;;;;;;;;;;;;;;2.50;91.19;98909.38;4891246;29;19982;-70
2020/12/25 03:32:05;;;;;;;;;;;;;;;2.56;91.22;98917.06;4880172;29;19927;-70
2020/12/25 03:34:32;;;;;;;;;;;;;;;2.50;90.86;98924.47;4880478;29;19928;-70
2020/12/25 03:36:59;;;;;;;;;;;;;;;2.36;90.87;98920.00;4880984;29;20398;-70
2020/12/25 03:39:26;;;;;;;;;;;;;;;2.35;90.33;98919.16;4894110;29;19927;-70
2020/12/25 03:41:54;;;;;;;;;;;;;;;2.40;90.78;98926.81;4895913;29;19978;-70
2020/12/25 03:44:22;;;;;;;;;;;;;;;2.45;90.16;98930.25;4890460;29;20010;-70
2020/12/25 03:46:50;;;;;;;;;;;;;;;2.46;90.31;98935.31;4890781;29;20022;-71
2020/12/25 03:49:18;;;;;;;;;;;;;;;2.45;90.18;98936.13;4884081;29;19944;-70
2020/12/25 03:51:46;;;;;;;;;;;;;;;2.30;90.19;98940.91;4884111;29;19985;-70
2020/12/25 03:54:13;;;;;;;;;;;;;;;2.29;90.32;98949.25;4890071;29;19975;-71
2020/12/25 03:56:40;;;;;;;;;;;;;;;2.33;89.86;98953.50;4890131;29;19928;-70
2020/12/25 03:59:08;;;;;;;;;;;;;;;2.32;89.59;98964.41;4883379;29;19928;-70
2020/12/25 04:01:35;;;;;;;;;;;;;;;2.16;90.18;98954.84;4896202;29;20417;-70
2020/12/25 04:04:02;;;;;;;;;;;;;;;2.06;89.32;98955.50;4883543;29;19928;-70
2020/12/25 04:06:32;;;;;;;;;;;;;;;2.11;89.45;98964.00;4891546;29;19975;-70
2020/12/25 04:08:59;;;;;;;;;;;;;;;2.00;89.97;98978.00;4898487;29;19932;-70
2020/12/25 04:11:27;;;;;;;;;;;;;;;1.90;90.07;98978.59;4881807;29;19928;-70
2020/12/25 04:13:54;;;;;;;;;;;;;;;1.86;89.57;98982.72;4884675;29;19938;-70
2020/12/25 04:16:22;;;;;;;;;;;;;;;1.89;89.39;98966.84;4892107;29;19928;-69
2020/12/25 04:18:49;;;;;;;;;;;;;;;1.70;89.78;98969.78;4883326;29;19959;-69
2020/12/25 04:21:17;;;;;;;;;;;;;;;1.76;89.44;98970.75;4883165;29;19928;-69
2020/12/25 04:23:46;;;;;;;;;;;;;;;1.67;89.15;98975.59;4883104;29;19971;-69
2020/12/25 04:26:14;;;;;;;;;;;;;;;1.54;89.90;98967.72;4888359;29;19928;-70
2020/12/25 04:28:41;;;;;;;;;;;;;;;1.52;89.07;98970.19;4887087;29;20343;-70
2020/12/25 04:31:09;;;;;;;;;;;;;;;1.45;89.31;98983.44;4883144;29;19935;-70
2020/12/25 04:33:36;;;;;;;;;;;;;;;1.45;89.24;98990.13;4889788;29;20454;-70
2020/12/25 04:36:04;;;;;;;;;;;;;;;1.34;88.96;98995.72;4901683;29;19927;-70
2020/12/25 04:38:31;;;;;;;;;;;;;;;1.38;89.10;98990.78;4901928;29;20338;-69
2020/12/25 04:41:00;;;;;;;;;;;;;;;1.22;89.84;98980.34;4885225;29;20294;-70
2020/12/25 04:43:28;;;;;;;;;;;;;;;1.12;89.97;98980.97;4888284;29;19983;-71
2020/12/25 04:45:55;;;;;;;;;;;;;;;1.24;89.82;98978.75;4883196;29;19961;-70
2020/12/25 04:48:22;;;;;;;;;;;;;;;1.39;89.24;98977.41;4888558;29;19928;-70
2020/12/25 04:50:50;;;;;;;;;;;;;;;1.51;89.92;98977.72;4896536;29;19931;-73
2020/12/25 04:53:17;;;;;;;;;;;;;;;1.54;89.46;98977.75;4882591;29;19934;-70
2020/12/25 04:55:44;;;;;;;;;;;;;;;1.49;89.32;98970.13;4890200;29;20030;-70
2020/12/25 04:58:13;;;;;;;;;;;;;;;1.49;89.17;98969.28;4882213;29;19928;-69
2020/12/25 05:00:40;;;;;;;;;;;;;;;1.37;89.67;98974.84;4893246;29;19936;-69
2020/12/25 05:03:08;;;;;;;;;;;;;;;1.35;89.57;98982.38;4882327;29;19928;-70
2020/12/25 05:05:35;;;;;;;;;;;;;;;1.46;89.08;98979.25;4882767;29;19927;-70
2020/12/25 05:08:02;;;;;;;;;;;;;;;1.31;89.05;98988.16;4897448;29;19928;-70
2020/12/25 05:10:30;;;;;;;;;;;;;;;1.28;89.20;98995.59;4901005;29;19959;-71
2020/12/25 05:12:57;;;;;;;;;;;;;;;1.04;89.40;98997.50;4900713;29;20302;-70
2020/12/25 05:15:26;;;;;;;;;;;;;;;1.09;89.64;99003.50;4900870;29;20026;-70
2020/12/25 05:17:56;;;;;;;;;;;;;;;1.07;89.48;99000.09;4889889;29;20283;-70
2020/12/25 05:20:23;;;;;;;;;;;;;;;1.08;89.17;98996.75;4882199;29;19928;-70
2020/12/25 05:22:50;;;;;;;;;;;;;;;1.12;89.45;98996.03;4881873;29;19927;-70
2020/12/25 05:25:18;;;;;;;;;;;;;;;1.13;89.42;98994.34;4882027;29;19934;-70
2020/12/25 05:27:45;;;;;;;;;;;;;;;1.15;89.54;99003.63;4882037;29;20003;-70
2020/12/25 05:30:13;;;;;;;;;;;;;;;1.16;89.16;98994.44;4881973;29;19928;-71
2020/12/25 05:32:41;;;;;;;;;;;;;;;1.00;89.10;98995.72;4881975;29;19928;-71
2020/12/25 05:35:09;;;;;;;;;;;;;;;1.05;89.63;98986.66;4882342;29;20011;-70
2020/12/25 05:37:37;;;;;;;;;;;;;;;1.09;89.25;98998.47;4881696;29;19932;-70
2020/12/25 05:40:04;;;;;;;;;;;;;;;1.00;89.48;98999.91;4881850;29;19927;-71
2020/12/25 05:42:32;;;;;;;;;;;;;;;0.97;88.95;99007.34;4881784;29;19927;-70
2020/12/25 05:44:59;;;;;;;;;;;;;;;0.80;89.52;99004.38;4881604;29;19928;-70
2020/12/25 05:47:27;;;;;;;;;;;;;;;0.83;89.16;99014.53;4881591;29;19932;-70
2020/12/25 05:49:55;;;;;;;;;;;;;;;0.87;89.22;99011.28;4881674;29;19963;-70
2020/12/25 05:52:23;;;;;;;;;;;;;;;0.89;89.60;99021.38;4882330;29;20288;-70
2020/12/25 05:54:50;;;;;;;;;;;;;;;0.85;89.23;99017.91;4881638;29;20386;-70
2020/12/25 05:57:18;;;;;;;;;;;;;;;0.91;88.79;99023.09;4881432;29;19932;-71
2020/12/25 05:59:45;;;;;;;;;;;;;;;0.99;89.26;99021.63;4881762;29;20302;-71
2020/12/25 06:02:13;;;;;;;;;;;;;;;1.00;89.60;99025.88;4881266;29;20027;-71
2020/12/25 06:04:40;;;;;;;;;;;;;;;1.02;89.12;99031.78;4881413;29;19980;-70
2020/12/25 06:07:31;;;;;;;;;;;;;;;0.95;89.05;99027.41;4882535;29;19935;-70
2020/12/25 06:09:59;;;;;;;;;;;;;;;0.97;88.89;99025.78;4881328;29;20342;-70
2020/12/25 06:12:37;;;;;;;;;;;;;;;0.74;89.23;99019.31;4881499;29;20367;-70
2020/12/25 06:15:04;;;;;;;;;;;;;;;0.79;88.94;99022.78;4881304;29;19932;-70
2020/12/25 06:17:32;;;;;;;;;;;;;;;0.86;89.33;99023.81;4881121;29;19934;-70
2020/12/25 06:20:00;;;;;;;;;;;;;;;0.85;89.15;99030.47;4881394;29;20406;-71
2020/12/25 06:22:29;;;;;;;;;;;;;;;0.85;89.37;99027.97;4881035;29;19928;-71
2020/12/25 06:24:59;;;;;;;;;;;;;;;0.89;89.30;99034.75;4883355;29;19967;-71
2020/12/25 06:27:26;;;;;;;;;;;;;;;0.85;89.38;99038.00;4899974;29;19962;-70
2020/12/25 06:29:54;;;;;;;;;;;;;;;0.82;89.58;99045.44;4899613;29;20495;-70
2020/12/25 06:32:22;;;;;;;;;;;;;;;0.77;88.48;99034.44;4899797;29;20346;-71
2020/12/25 06:34:51;;;;;;;;;;;;;;;0.78;89.35;99036.16;4898717;29;19951;-70
2020/12/25 06:37:18;;;;;;;;;;;;;;;0.76;89.32;99037.75;4899527;29;19935;-71
2020/12/25 06:39:47;;;;;;;;;;;;;;;0.73;89.30;99042.69;4899406;29;19931;-71
2020/12/25 06:42:18;;;;;;;;;;;;;;;0.77;89.56;99043.66;4892258;29;20397;-71
2020/12/25 06:44:48;;;;;;;;;;;;;;;0.70;89.26;99050.13;4880802;29;20018;-70
2020/12/25 06:47:26;;;;;;;;;;;;;;;0.67;89.38;99057.59;4879736;29;19951;-70
2020/12/25 06:49:54;;;;;;;;;;;;;;;0.63;89.52;99060.81;4880698;29;19977;-70
2020/12/25 06:52:25;;;;;;;;;;;;;;;0.64;89.16;99055.84;4880600;29;20442;-70
2020/12/25 06:54:52;;;;;;;;;;;;;;;0.57;88.95;99060.66;4895425;29;20030;-70
2020/12/25 06:57:20;;;;;;;;;;;;;;;0.59;88.96;99054.00;4899018;29;20392;-71
2020/12/25 06:59:49;;;;;;;;;;;;;;;0.57;89.36;99051.47;4888643;29;20382;-70
2020/12/25 07:02:16;;;;;;;;;;;;;;;0.55;89.11;99048.03;4880249;29;19932;-70
2020/12/25 07:04:44;;;;;;;;;;;;;;;0.47;88.97;99061.19;4880431;29;20378;-71
2020/12/25 07:07:12;;;;;;;;;;;;;;;0.55;88.79;99064.78;4887839;29;19932;-70
2020/12/25 07:09:41;;;;;;;;;;;;;;;0.55;89.06;99072.31;4880294;29;19935;-70
2020/12/25 07:12:08;;;;;;;;;;;;;;;0.64;89.45;99072.56;4880359;29;20383;-70
2020/12/25 07:14:36;;;;;;;;;;;;;;;0.60;88.98;99085.84;4880177;29;20287;-72
2020/12/25 07:17:04;;;;;;;;;;;;;;;0.64;89.03;99087.63;4880121;29;20018;-71
2020/12/25 07:19:33;;;;;;;;;;;;;;;1.12;88.73;99091.50;4879826;29;19935;-71
2020/12/25 07:22:00;;;;;;;;;;;;;;;1.48;89.09;99095.78;4880279;29;19935;-70
2020/12/25 07:24:28;;;;;;;;;;;;;;;1.63;88.38;99101.22;4880201;29;19984;-72
2020/12/25 07:26:56;;;;;;;;;;;;;;;1.88;87.80;99106.00;4880498;29;19935;-71
2020/12/25 07:29:24;;;;;;;;;;;;;;;1.89;87.55;99110.25;4880199;29;19976;-71
2020/12/25 07:31:53;;;;;;;;;;;;;;;2.17;87.93;99109.22;4879003;29;19927;-71
2020/12/25 07:34:21;;;;;;;;;;;;;;;2.71;87.14;99113.78;4880449;29;19928;-70
2020/12/25 07:36:48;;;;;;;;;;;;;;;3.07;87.30;99110.34;4879896;29;19991;-70
2020/12/25 07:39:16;;;;;;;;;;;;;;;3.00;86.00;99113.56;4880013;29;19928;-72
2020/12/25 07:41:44;;;;;;;;;;;;;;;3.12;85.41;99116.31;4879817;29;20568;-70
2020/12/25 07:44:16;;;;;;;;;;;;;;;3.42;84.76;99119.41;4880125;29;19927;-70
2020/12/25 07:46:43;;;;;;;;;;;;;;;3.92;84.69;99115.22;4880005;29;19928;-70
2020/12/25 07:49:12;;;;;;;;;;;;;;;4.13;83.65;99117.28;4879882;29;20015;-75
2020/12/25 07:51:39;;;;;;;;;;;;;;;4.24;83.06;99105.66;4880705;29;20064;-71
2020/12/25 07:54:08;;;;;;;;;;;;;;;4.16;82.32;99100.47;4884066;29;20021;-70
2020/12/25 07:56:37;;;;;;;;;;;;;;;4.08;82.43;99110.44;4887005;29;20302;-72
2020/12/25 07:59:05;;;;;;;;;;;;;;;4.17;82.08;99113.94;4880865;29;19927;-73
2020/12/25 08:01:33;;;;;;;;;;;;;;;3.92;82.19;99108.53;4899234;29;20397;-74
2020/12/25 08:04:01;;;;;;;;;;;;;;;4.19;82.09;99108.09;4900255;29;20390;-74
2020/12/25 08:06:30;;;;;;;;;;;;;;;3.87;82.11;99105.06;4885500;29;19983;-72
2020/12/25 08:08:58;;;;;;;;;;;;;;;3.80;82.14;99108.31;4898567;29;19932;-72
2020/12/25 08:11:25;;;;;;;;;;;;;;;4.05;81.76;99110.41;4897970;29;19931;-74
2020/12/25 08:13:53;;;;;;;;;;;;;;;4.24;82.25;99105.66;4880013;29;19928;-72
2020/12/25 08:16:21;;;;;;;;;;;;;;;4.57;82.16;99106.97;4879709;29;20379;-72
2020/12/25 08:18:52;;;;;;;;;;;;;;;4.54;81.67;99121.22;4878439;29;20291;-73
2020/12/25 08:21:20;;;;;;;;;;;;;;;4.77;81.57;99114.81;4889652;29;19935;-73
2020/12/25 08:23:49;;;;;;;;;;;;;;;4.51;80.92;99119.50;4888792;29;20434;-75
2020/12/25 08:26:17;;;;;;;;;;;;;;;4.39;81.48;99115.97;4886539;29;19928;-73
2020/12/25 08:28:44;;;;;;;;;;;;;;;4.13;81.25;99124.84;4894720;29;19935;-75
2020/12/25 08:31:13;;;;;;;;;;;;;;;4.01;80.77;99123.81;4883267;29;20036;-73
2020/12/25 08:33:52;;;;;;;;;;;;;;;4.33;81.31;99131.03;4888605;29;19986;-77
2020/12/25 08:36:20;;;;;;;;;;;;;;;4.42;81.07;99124.44;4883646;29;19983;-72
2020/12/25 08:39:05;;;;;;;;;;;;;;;4.33;80.44;99121.78;4885623;29;19936;-72
2020/12/25 08:41:33;;;;;;;;;;;;;;;4.50;81.17;99117.81;4908109;29;20010;-72
2020/12/25 08:44:08;;;;;;;;;;;;;;;4.90;81.03;99121.72;4891074;29;19982;-74
2020/12/25 08:46:35;;;;;;;;;;;;;;;5.05;80.53;99131.19;4884862;29;19948;-73
2020/12/25 08:49:03;;;;;;;;;;;;;;;5.35;80.08;99134.91;4885342;29;19928;-73
2020/12/25 08:51:36;;;;;;;;;;;;;;;5.24;80.00;99141.53;4886034;29;20379;-71
2020/12/25 08:54:03;;;;;;;;;;;;;;;5.09;79.63;99141.34;4901331;29;19927;-72
2020/12/25 08:56:32;;;;;;;;;;;;;;;4.88;79.23;99140.22;4892529;29;19934;-71
2020/12/25 08:58:59;;;;;;;;;;;;;;;4.72;79.85;99146.78;4893593;29;20350;-73
2020/12/25 09:01:28;;;;;;;;;;;;;;;4.59;80.10;99147.41;4900623;29;19938;-73
2020/12/25 09:03:56;;;;;;;;;;;;;;;4.60;80.92;99146.59;4897376;29;19936;-73
2020/12/25 09:06:24;;;;;;;;;;;;;;;4.50;80.60;99144.75;4899406;29;19998;-73
2020/12/25 09:08:51;;;;;;;;;;;;;;;4.57;80.64;99146.53;4891673;29;19963;-74
2020/12/25 09:11:19;;;;;;;;;;;;;;;4.49;81.23;99153.16;4894317;29;19932;-71
2020/12/25 09:13:47;;;;;;;;;;;;;;;4.37;81.59;99152.97;4883676;29;19975;-72
2020/12/25 09:16:15;;;;;;;;;;;;;;;4.48;81.85;99149.81;4883975;29;19928;-73
2020/12/25 09:18:42;;;;;;;;;;;;;;;4.97;81.34;99137.81;4887641;29;19984;-72
2020/12/25 09:21:10;;;;;;;;;;;;;;;5.23;81.16;99134.78;4887679;29;19943;-72
2020/12/25 09:23:37;;;;;;;;;;;;;;;5.46;81.07;99129.13;4898769;29;19931;-72
2020/12/25 09:26:06;;;;;;;;;;;;;;;5.85;80.74;99134.63;4887309;29;19935;-73
2020/12/25 09:28:33;;;;;;;;;;;;;;;6.12;80.48;99129.78;4892544;29;20010;-72
2020/12/25 09:31:03;;;;;;;;;;;;;;;6.35;78.91;99123.22;4885320;29;19927;-73
2020/12/25 09:33:31;;;;;;;;;;;;;;;6.50;77.47;99125.81;4893976;29;19995;-75
2020/12/25 09:35:59;;;;;;;;;;;;;;;6.67;76.58;99126.78;4881962;29;19984;-72
2020/12/25 09:38:26;;;;;;;;;;;;;;;6.81;76.00;99128.56;4891724;29;19928;-74
2020/12/25 09:40:54;;;;;;;;;;;;;;;6.92;75.53;99126.91;4884674;29;19934;-71
2020/12/25 09:43:21;;;;;;;;;;;;;;;7.04;75.02;99132.03;4883467;29;20357;-72
2020/12/25 09:45:49;;;;;;;;;;;;;;;7.25;74.01;99132.13;4893912;29;19935;-72
2020/12/25 09:48:22;;;;;;;;;;;;;;;7.42;73.14;99125.41;4890014;29;19957;-71
2020/12/25 09:50:50;;;;;;;;;;;;;;;7.30;72.28;99130.44;4890763;29;20370;-72
2020/12/25 09:53:18;;;;;;;;;;;;;;;7.56;72.70;99128.81;4893487;29;20019;-72
2020/12/25 09:55:50;;;;;;;;;;;;;;;7.52;72.01;99126.28;4892151;29;20378;-72
2020/12/25 09:58:21;;;;;;;;;;;;;;;7.73;71.21;99126.31;4895945;29;20298;-70
2020/12/25 10:00:48;;;;;;;;;;;;;;;7.85;71.64;99127.19;4884374;29;19932;-71
2020/12/25 10:03:15;;;;;;;;;;;;;;;8.01;70.84;99133.97;4881588;29;19927;-73
2020/12/25 10:05:44;;;;;;;;;;;;;;;7.91;70.62;99122.13;4869272;29;19946;-73
2020/12/25 10:08:12;;;;;;;;;;;;;;;8.03;69.99;99136.53;4891169;29;20378;-71
2020/12/25 10:10:39;;;;;;;;;;;;;;;8.06;68.80;99131.47;4884308;29;19928;-71
2020/12/25 10:13:08;;;;;;;;;;;;;;;8.31;69.14;99132.31;4881292;29;20433;-73
2020/12/25 10:15:35;;;;;;;;;;;;;;;8.59;69.80;99129.72;4890642;29;19943;-71
2020/12/25 10:18:03;;;;;;;;;;;;;;;8.68;67.73;99123.78;4883108;29;20314;-71
2020/12/25 10:20:30;;;;;;;;;;;;;;;8.65;68.41;99133.97;4880151;29;19927;-71
2020/12/25 10:22:58;;;;;;;;;;;;;;;8.60;67.08;99135.66;4851223;29;19931;-72
2020/12/25 10:25:26;;;;;;;;;;;;;;;8.56;67.05;99141.63;4896251;29;19951;-72
2020/12/25 10:27:54;;;;;;;;;;;;;;;8.44;66.33;99139.94;4899945;29;19927;-71
2020/12/25 10:30:22;;;;;;;;;;;;;;;8.59;66.29;99141.63;4892160;29;19936;-71
2020/12/25 10:32:49;;;;;;;;;;;;;;;8.39;65.62;99145.88;4881433;29;19954;-72
2020/12/25 10:35:17;;;;;;;;;;;;;;;8.25;65.19;99147.53;4886399;29;19931;-72
2020/12/25 10:37:45;;;;;;;;;;;;;;;8.42;64.90;99144.16;4891729;29;19935;-72
2020/12/25 10:40:29;;;;;;;;;;;;;;;8.41;65.67;99139.09;4888468;29;19931;-71
2020/12/25 10:42:56;;;;;;;;;;;;;;;8.54;64.85;99136.53;4880158;29;20011;-72
2020/12/25 10:45:24;;;;;;;;;;;;;;;8.91;64.96;99136.44;4881639;29;20397;-71
2020/12/25 10:47:51;;;;;;;;;;;;;;;8.88;64.23;99141.56;4892962;29;19927;-71
2020/12/25 10:50:18;;;;;;;;;;;;;;;8.93;64.89;99147.47;4880372;29;20463;-70
2020/12/25 10:52:45;;;;;;;;;;;;;;;9.03;64.00;99151.69;4898969;29;19934;-71
2020/12/25 10:55:13;;;;;;;;;;;;;;;8.91;63.39;99157.66;4883773;29;19927;-70
2020/12/25 10:57:41;;;;;;;;;;;;;;;9.02;64.02;99155.91;4887178;29;19927;-71
2020/12/25 11:00:09;;;;;;;;;;;;;;;9.14;62.59;99155.06;4880596;29;19927;-71
2020/12/25 11:02:36;;;;;;;;;;;;;;;8.90;61.66;99150.84;4880391;29;20401;-73
2020/12/25 11:05:03;;;;;;;;;;;;;;;9.05;61.39;99153.38;4886997;29;19928;-70
2020/12/25 11:07:31;;;;;;;;;;;;;;;9.18;61.01;99149.94;4886533;29;20031;-71
2020/12/25 11:09:58;;;;;;;;;;;;;;;9.26;60.55;99155.00;4880503;29;19983;-72
2020/12/25 11:12:26;;;;;;;;;;;;;;;8.59;62.15;99155.16;4880191;29;20350;-71
2020/12/25 11:14:56;;;;;;;;;;;;;;;8.10;63.15;99169.56;4891225;29;19956;-72
2020/12/25 11:17:24;;;;;;;;;;;;;;;7.95;63.30;99167.00;4899076;29;19967;-71
2020/12/25 11:19:55;;;;;;;;;;;;;;;7.95;63.92;99179.72;4896997;29;19970;-73
2020/12/25 11:22:28;;;;;;;;;;;;;;;8.10;63.57;99178.88;4889173;29;19932;-71
2020/12/25 11:24:55;;;;;;;;;;;;;;;8.13;62.85;99172.97;4883416;29;20369;-71
2020/12/25 11:27:23;;;;;;;;;;;;;;;7.97;64.17;99172.94;4882175;29;19928;-72
2020/12/25 11:29:51;;;;;;;;;;;;;;;7.96;64.12;99181.41;4883832;29;19942;-72
2020/12/25 11:32:20;;;;;;;;;;;;;;;8.78;62.84;99182.28;4884510;29;20043;-71
2020/12/25 11:34:47;;;;;;;;;;;;;;;9.16;60.95;99172.03;4879915;29;20018;-72
2020/12/25 11:37:15;;;;;;;;;;;;;;;10.25;58.68;99168.88;4879683;29;19928;-73
2020/12/25 11:39:42;;;;;;;;;;;;;;;12.26;53.80;99170.78;4878833;29;19928;-71
2020/12/25 11:42:09;;;;;;;;;;;;;;;14.05;49.19;99162.19;4892626;29;19933;-72
2020/12/25 11:44:37;;;;;;;;;;;;;;;15.25;46.54;99157.41;4886984;29;20030;-71
2020/12/25 11:47:05;;;;;;;;;;;;;;;15.83;44.15;99164.28;4882607;29;20382;-72
2020/12/25 11:49:33;;;;;;;;;;;;;;;16.59;42.46;99169.63;4879645;29;19984;-71
2020/12/25 11:52:00;;;;;;;;;;;;;;;16.25;41.87;99166.41;4879841;29;19935;-71
2020/12/25 11:54:28;;;;;;;;;;;;;;;14.94;43.10;99164.25;4883666;29;19931;-72
2020/12/25 11:56:55;;;;;;;;;;;;;;;14.56;45.19;99172.09;4883604;29;20291;-71
2020/12/25 11:59:23;;;;;;;;;;;;;;;15.43;43.49;99171.44;4878992;29;19999;-72
2020/12/25 12:01:50;;;;;;;;;;;;;;;14.49;43.98;99168.81;4880885;29;19983;-72
2020/12/25 12:04:18;;;;;;;;;;;;;;;10.98;51.01;99183.53;4893527;29;19957;-70
2020/12/25 12:06:46;;;;;;;;;;;;;;;11.30;51.66;99176.38;4889446;29;19938;-71
2020/12/25 12:09:13;;;;;;;;;;;;;;;12.58;49.51;99176.22;4902259;29;19979;-70
2020/12/25 12:11:41;;;;;;;;;;;;;;;12.90;48.26;99171.38;4894933;29;19935;-74
2020/12/25 12:14:09;;;;;;;;;;;;;;;13.40;47.03;99181.53;4884892;29;20315;-72
2020/12/25 12:16:36;;;;;;;;;;;;;;;13.96;46.08;99176.94;4886773;29;20382;-71
2020/12/25 12:19:09;;;;;;;;;;;;;;;13.82;45.84;99184.91;4882375;29;19927;-72
2020/12/25 12:21:37;;;;;;;;;;;;;;;13.05;46.94;99194.13;4887222;29;20425;-72
2020/12/25 12:24:06;;;;;;;;;;;;;;;12.53;48.89;99198.47;4884911;29;19928;-73
2020/12/25 12:26:33;;;;;;;;;;;;;;;11.99;50.06;99206.16;4882558;29;19963;-72
2020/12/25 12:29:02;;;;;;;;;;;;;;;10.84;52.23;99200.69;4891295;29;19967;-75
2020/12/25 12:31:29;;;;;;;;;;;;;;;10.54;54.02;99215.41;4883145;29;19928;-72
2020/12/25 12:33:56;;;;;;;;;;;;;;;10.19;54.87;99204.63;4886450;29;20010;-71
2020/12/25 12:36:24;;;;;;;;;;;;;;;9.68;55.56;99204.88;4901766;29;20382;-72
2020/12/25 12:38:51;;;;;;;;;;;;;;;9.09;57.82;99218.72;4900410;29;20006;-72
2020/12/25 12:41:25;;;;;;;;;;;;;;;8.89;58.63;99210.25;4882123;29;19932;-71
2020/12/25 12:43:52;;;;;;;;;;;;;;;8.84;59.35;99217.03;4882943;29;19927;-72
2020/12/25 12:46:19;;;;;;;;;;;;;;;8.84;60.24;99217.03;4882109;29;19928;-71
2020/12/25 12:48:47;;;;;;;;;;;;;;;8.92;60.44;99214.50;4882378;29;19984;-72
2020/12/25 12:51:15;;;;;;;;;;;;;;;8.86;60.48;99212.78;4882364;29;19978;-73
2020/12/25 12:53:43;;;;;;;;;;;;;;;8.50;61.07;99215.38;4889441;29;19928;-72
2020/12/25 12:56:11;;;;;;;;;;;;;;;8.28;61.51;99208.59;4886421;29;20528;-71
2020/12/25 12:58:39;;;;;;;;;;;;;;;8.10;62.17;99212.78;4906956;29;20426;-72
2020/12/25 13:01:07;;;;;;;;;;;;;;;7.95;63.42;99215.28;4905345;29;19928;-71